sensor_id;sensor_type;location;lat;lon;timestamp;P1;durP1;ratioP1;P2;durP2;ratioP2
59770;SDS011;45649;53.014;6.600;2022-12-07T00:00:32;6.87;;;2.47;;
59770;SDS011;45649;53.014;6.600;2022-12-07T00:02:58;9.70;;;2.80;;
59770;SDS011;45649;53.014;6.600;2022-12-07T00:05:24;6.27;;;2.17;;
59770;SDS011;45649;53.014;6.600;2022-12-07T00:07:50;10.87;;;1.80;;
59770;SDS011;45649;53.014;6.600;2022-12-07T00:10:20;4.83;;;2.00;;
59770;SDS011;45649;53.014;6.600;2022-12-07T00:12:46;9.37;;;2.43;;
59770;SDS011;45649;53.014;6.600;2022-12-07T00:15:12;6.80;;;2.27;;
59770;SDS011;45649;53.014;6.600;2022-12-07T00:17:38;5.90;;;1.70;;
59770;SDS011;45649;53.014;6.600;2022-12-07T00:20:05;6.73;;;1.93;;
59770;SDS011;45649;53.014;6.600;2022-12-07T00:22:31;7.87;;;2.03;;
59770;SDS011;45649;53.014;6.600;2022-12-07T00:24:58;8.47;;;1.90;;
59770;SDS011;45649;53.014;6.600;2022-12-07T00:27:24;4.73;;;1.97;;
59770;SDS011;45649;53.014;6.600;2022-12-07T00:29:50;9.17;;;2.40;;
59770;SDS011;45649;53.014;6.600;2022-12-07T00:32:16;5.70;;;2.30;;
59770;SDS011;45649;53.014;6.600;2022-12-07T00:34:43;6.17;;;2.23;;
59770;SDS011;45649;53.014;6.600;2022-12-07T00:37:09;7.93;;;2.50;;
59770;SDS011;45649;53.014;6.600;2022-12-07T00:39:37;6.13;;;2.17;;
59770;SDS011;45649;53.014;6.600;2022-12-07T00:42:03;6.83;;;2.70;;
59770;SDS011;45649;53.014;6.600;2022-12-07T00:44:29;7.17;;;2.67;;
59770;SDS011;45649;53.014;6.600;2022-12-07T00:46:56;4.63;;;2.10;;
59770;SDS011;45649;53.014;6.600;2022-12-07T00:49:22;6.40;;;2.17;;
59770;SDS011;45649;53.014;6.600;2022-12-07T00:51:48;5.13;;;2.33;;
59770;SDS011;45649;53.014;6.600;2022-12-07T00:54:15;5.20;;;2.03;;
59770;SDS011;45649;53.014;6.600;2022-12-07T00:56:41;5.83;;;2.10;;
59770;SDS011;45649;53.014;6.600;2022-12-07T00:59:10;5.40;;;2.17;;
59770;SDS011;45649;53.014;6.600;2022-12-07T01:01:37;6.00;;;2.10;;
59770;SDS011;45649;53.014;6.600;2022-12-07T01:04:04;8.67;;;1.90;;
59770;SDS011;45649;53.014;6.600;2022-12-07T01:06:30;4.27;;;1.77;;
59770;SDS011;45649;53.014;6.600;2022-12-07T01:08:56;5.87;;;1.80;;
59770;SDS011;45649;53.014;6.600;2022-12-07T01:11:24;10.63;;;2.10;;
59770;SDS011;45649;53.014;6.600;2022-12-07T01:13:50;6.30;;;2.30;;
59770;SDS011;45649;53.014;6.600;2022-12-07T01:16:17;5.27;;;2.07;;
59770;SDS011;45649;53.014;6.600;2022-12-07T01:18:46;5.53;;;1.70;;
59770;SDS011;45649;53.014;6.600;2022-12-07T01:21:13;5.17;;;1.87;;
59770;SDS011;45649;53.014;6.600;2022-12-07T01:23:39;6.90;;;1.73;;
59770;SDS011;45649;53.014;6.600;2022-12-07T01:26:07;6.80;;;2.10;;
59770;SDS011;45649;53.014;6.600;2022-12-07T01:28:33;6.30;;;1.80;;
59770;SDS011;45649;53.014;6.600;2022-12-07T01:31:06;4.33;;;1.60;;
59770;SDS011;45649;53.014;6.600;2022-12-07T01:33:34;3.83;;;1.43;;
59770;SDS011;45649;53.014;6.600;2022-12-07T01:36:23;5.00;;;1.67;;
59770;SDS011;45649;53.014;6.600;2022-12-07T01:38:47;3.93;;;1.53;;
59770;SDS011;45649;53.014;6.600;2022-12-07T01:41:16;7.53;;;1.90;;
59770;SDS011;45649;53.014;6.600;2022-12-07T01:46:27;5.27;;;1.57;;
59770;SDS011;45649;53.014;6.600;2022-12-07T01:48:53;5.07;;;1.60;;
59770;SDS011;45649;53.014;6.600;2022-12-07T01:51:19;3.33;;;1.33;;
59770;SDS011;45649;53.014;6.600;2022-12-07T01:53:45;3.93;;;1.30;;
59770;SDS011;45649;53.014;6.600;2022-12-07T01:56:13;6.80;;;1.63;;
59770;SDS011;45649;53.014;6.600;2022-12-07T01:58:40;6.37;;;1.67;;
59770;SDS011;45649;53.014;6.600;2022-12-07T02:01:06;4.30;;;1.37;;
59770;SDS011;45649;53.014;6.600;2022-12-07T02:03:34;5.67;;;1.83;;
59770;SDS011;45649;53.014;6.600;2022-12-07T02:06:01;6.40;;;1.57;;
59770;SDS011;45649;53.014;6.600;2022-12-07T02:08:28;6.90;;;1.73;;
59770;SDS011;45649;53.014;6.600;2022-12-07T02:10:54;5.57;;;1.60;;
59770;SDS011;45649;53.014;6.600;2022-12-07T02:13:31;6.43;;;1.57;;
59770;SDS011;45649;53.014;6.600;2022-12-07T02:18:48;4.77;;;1.43;;
59770;SDS011;45649;53.014;6.600;2022-12-07T02:26:23;5.83;;;1.63;;
59770;SDS011;45649;53.014;6.600;2022-12-07T02:31:35;5.60;;;1.60;;
59770;SDS011;45649;53.014;6.600;2022-12-07T02:34:09;5.97;;;1.50;;
59770;SDS011;45649;53.014;6.600;2022-12-07T02:36:46;5.90;;;1.57;;
59770;SDS011;45649;53.014;6.600;2022-12-07T02:39:16;4.23;;;1.53;;
59770;SDS011;45649;53.014;6.600;2022-12-07T02:41:44;5.00;;;1.60;;
59770;SDS011;45649;53.014;6.600;2022-12-07T02:44:13;5.77;;;1.60;;
59770;SDS011;45649;53.014;6.600;2022-12-07T02:46:42;8.07;;;1.60;;
59770;SDS011;45649;53.014;6.600;2022-12-07T02:49:09;8.13;;;1.70;;
59770;SDS011;45649;53.014;6.600;2022-12-07T02:51:40;8.50;;;1.57;;
59770;SDS011;45649;53.014;6.600;2022-12-07T02:54:13;5.53;;;1.57;;
59770;SDS011;45649;53.014;6.600;2022-12-07T02:57:03;6.37;;;1.90;;
59770;SDS011;45649;53.014;6.600;2022-12-07T02:59:29;6.13;;;1.87;;
59770;SDS011;45649;53.014;6.600;2022-12-07T03:05:13;5.33;;;1.50;;
59770;SDS011;45649;53.014;6.600;2022-12-07T03:17:59;4.53;;;1.50;;
59770;SDS011;45649;53.014;6.600;2022-12-07T03:20:26;6.93;;;1.73;;
59770;SDS011;45649;53.014;6.600;2022-12-07T03:22:53;4.70;;;1.40;;
59770;SDS011;45649;53.014;6.600;2022-12-07T03:25:20;5.83;;;1.40;;
59770;SDS011;45649;53.014;6.600;2022-12-07T03:27:51;6.23;;;1.60;;
59770;SDS011;45649;53.014;6.600;2022-12-07T03:30:22;5.73;;;1.50;;
59770;SDS011;45649;53.014;6.600;2022-12-07T03:35:23;10.77;;;1.97;;
59770;SDS011;45649;53.014;6.600;2022-12-07T03:37:59;6.00;;;1.57;;
59770;SDS011;45649;53.014;6.600;2022-12-07T03:40:28;6.07;;;1.60;;
59770;SDS011;45649;53.014;6.600;2022-12-07T03:42:56;4.67;;;1.70;;
59770;SDS011;45649;53.014;6.600;2022-12-07T03:45:26;4.33;;;1.57;;
59770;SDS011;45649;53.014;6.600;2022-12-07T03:48:04;8.77;;;1.90;;
59770;SDS011;45649;53.014;6.600;2022-12-07T03:50:36;6.70;;;1.57;;
59770;SDS011;45649;53.014;6.600;2022-12-07T03:53:24;6.37;;;1.60;;
59770;SDS011;45649;53.014;6.600;2022-12-07T03:55:53;4.43;;;1.40;;
59770;SDS011;45649;53.014;6.600;2022-12-07T03:58:20;5.50;;;1.60;;
59770;SDS011;45649;53.014;6.600;2022-12-07T04:00:48;5.97;;;1.57;;
59770;SDS011;45649;53.014;6.600;2022-12-07T04:03:14;4.93;;;1.63;;
59770;SDS011;45649;53.014;6.600;2022-12-07T04:05:40;5.17;;;1.80;;
59770;SDS011;45649;53.014;6.600;2022-12-07T04:08:08;8.53;;;1.63;;
59770;SDS011;45649;53.014;6.600;2022-12-07T04:10:34;9.63;;;1.90;;
59770;SDS011;45649;53.014;6.600;2022-12-07T04:13:00;4.67;;;1.63;;
59770;SDS011;45649;53.014;6.600;2022-12-07T04:15:26;6.40;;;1.40;;
59770;SDS011;45649;53.014;6.600;2022-12-07T04:17:52;5.63;;;1.50;;
59770;SDS011;45649;53.014;6.600;2022-12-07T04:20:19;5.10;;;1.90;;
59770;SDS011;45649;53.014;6.600;2022-12-07T04:22:46;6.07;;;1.63;;
59770;SDS011;45649;53.014;6.600;2022-12-07T04:25:12;4.70;;;1.33;;
59770;SDS011;45649;53.014;6.600;2022-12-07T04:27:38;7.17;;;1.60;;
59770;SDS011;45649;53.014;6.600;2022-12-07T04:30:04;5.63;;;1.47;;
59770;SDS011;45649;53.014;6.600;2022-12-07T04:32:32;7.97;;;1.57;;
59770;SDS011;45649;53.014;6.600;2022-12-07T04:34:58;5.80;;;1.40;;
59770;SDS011;45649;53.014;6.600;2022-12-07T04:37:24;5.33;;;1.60;;
59770;SDS011;45649;53.014;6.600;2022-12-07T04:39:50;7.00;;;1.53;;
59770;SDS011;45649;53.014;6.600;2022-12-07T04:42:16;8.30;;;1.60;;
59770;SDS011;45649;53.014;6.600;2022-12-07T04:44:43;7.47;;;1.50;;
59770;SDS011;45649;53.014;6.600;2022-12-07T04:47:09;6.87;;;1.70;;
59770;SDS011;45649;53.014;6.600;2022-12-07T04:49:35;7.00;;;1.30;;
59770;SDS011;45649;53.014;6.600;2022-12-07T04:52:02;3.23;;;1.40;;
59770;SDS011;45649;53.014;6.600;2022-12-07T04:54:28;12.07;;;1.90;;
59770;SDS011;45649;53.014;6.600;2022-12-07T04:56:54;5.00;;;1.63;;
59770;SDS011;45649;53.014;6.600;2022-12-07T04:59:20;6.43;;;1.57;;
59770;SDS011;45649;53.014;6.600;2022-12-07T05:01:47;6.20;;;1.73;;
59770;SDS011;45649;53.014;6.600;2022-12-07T05:04:13;6.47;;;1.73;;
59770;SDS011;45649;53.014;6.600;2022-12-07T05:06:41;8.40;;;1.80;;
59770;SDS011;45649;53.014;6.600;2022-12-07T05:09:07;8.20;;;1.80;;
59770;SDS011;45649;53.014;6.600;2022-12-07T05:11:33;4.60;;;1.50;;
59770;SDS011;45649;53.014;6.600;2022-12-07T05:14:10;5.70;;;1.57;;
59770;SDS011;45649;53.014;6.600;2022-12-07T05:16:36;6.27;;;2.00;;
59770;SDS011;45649;53.014;6.600;2022-12-07T05:19:02;9.63;;;2.13;;
59770;SDS011;45649;53.014;6.600;2022-12-07T05:21:28;5.50;;;1.60;;
59770;SDS011;45649;53.014;6.600;2022-12-07T05:23:55;7.83;;;1.77;;
59770;SDS011;45649;53.014;6.600;2022-12-07T05:26:21;7.33;;;1.77;;
59770;SDS011;45649;53.014;6.600;2022-12-07T05:28:54;6.83;;;2.00;;
59770;SDS011;45649;53.014;6.600;2022-12-07T05:31:20;6.93;;;1.83;;
59770;SDS011;45649;53.014;6.600;2022-12-07T05:33:47;4.40;;;1.50;;
59770;SDS011;45649;53.014;6.600;2022-12-07T05:36:13;6.90;;;1.70;;
59770;SDS011;45649;53.014;6.600;2022-12-07T05:38:39;5.87;;;1.67;;
59770;SDS011;45649;53.014;6.600;2022-12-07T05:41:06;6.50;;;2.10;;
59770;SDS011;45649;53.014;6.600;2022-12-07T05:43:32;6.83;;;1.60;;
59770;SDS011;45649;53.014;6.600;2022-12-07T05:45:58;3.47;;;1.60;;
59770;SDS011;45649;53.014;6.600;2022-12-07T05:48:25;5.30;;;1.60;;
59770;SDS011;45649;53.014;6.600;2022-12-07T05:50:51;5.33;;;1.67;;
59770;SDS011;45649;53.014;6.600;2022-12-07T05:53:18;4.67;;;1.63;;
59770;SDS011;45649;53.014;6.600;2022-12-07T05:55:44;5.83;;;1.60;;
59770;SDS011;45649;53.014;6.600;2022-12-07T05:58:10;8.00;;;1.83;;
59770;SDS011;45649;53.014;6.600;2022-12-07T06:00:55;7.80;;;1.80;;
59770;SDS011;45649;53.014;6.600;2022-12-07T06:03:22;5.77;;;1.60;;
59770;SDS011;45649;53.014;6.600;2022-12-07T06:05:48;3.57;;;1.53;;
59770;SDS011;45649;53.014;6.600;2022-12-07T06:08:14;3.30;;;1.30;;
59770;SDS011;45649;53.014;6.600;2022-12-07T06:10:41;9.13;;;1.90;;
59770;SDS011;45649;53.014;6.600;2022-12-07T06:13:08;6.90;;;2.20;;
59770;SDS011;45649;53.014;6.600;2022-12-07T06:15:37;5.77;;;1.80;;
59770;SDS011;45649;53.014;6.600;2022-12-07T06:18:03;5.63;;;1.80;;
59770;SDS011;45649;53.014;6.600;2022-12-07T06:20:29;7.03;;;1.73;;
59770;SDS011;45649;53.014;6.600;2022-12-07T06:22:55;11.40;;;2.00;;
59770;SDS011;45649;53.014;6.600;2022-12-07T06:25:21;5.23;;;1.63;;
59770;SDS011;45649;53.014;6.600;2022-12-07T06:27:48;6.07;;;2.00;;
59770;SDS011;45649;53.014;6.600;2022-12-07T06:30:15;7.20;;;1.40;;
59770;SDS011;45649;53.014;6.600;2022-12-07T06:32:41;5.00;;;1.83;;
59770;SDS011;45649;53.014;6.600;2022-12-07T06:35:07;6.63;;;1.53;;
59770;SDS011;45649;53.014;6.600;2022-12-07T06:37:33;7.30;;;1.90;;
59770;SDS011;45649;53.014;6.600;2022-12-07T06:39:59;7.67;;;1.90;;
59770;SDS011;45649;53.014;6.600;2022-12-07T06:42:25;4.67;;;1.67;;
59770;SDS011;45649;53.014;6.600;2022-12-07T06:44:51;6.63;;;1.80;;
59770;SDS011;45649;53.014;6.600;2022-12-07T06:47:17;8.00;;;1.70;;
59770;SDS011;45649;53.014;6.600;2022-12-07T06:49:44;7.43;;;1.70;;
59770;SDS011;45649;53.014;6.600;2022-12-07T06:52:10;6.07;;;1.50;;
59770;SDS011;45649;53.014;6.600;2022-12-07T06:54:37;6.07;;;1.67;;
59770;SDS011;45649;53.014;6.600;2022-12-07T06:57:03;7.47;;;1.80;;
59770;SDS011;45649;53.014;6.600;2022-12-07T06:59:29;8.03;;;1.47;;
59770;SDS011;45649;53.014;6.600;2022-12-07T07:01:55;4.10;;;1.83;;
59770;SDS011;45649;53.014;6.600;2022-12-07T07:04:22;5.87;;;2.23;;
59770;SDS011;45649;53.014;6.600;2022-12-07T07:06:49;5.97;;;1.50;;
59770;SDS011;45649;53.014;6.600;2022-12-07T07:09:15;5.67;;;1.53;;
59770;SDS011;45649;53.014;6.600;2022-12-07T07:11:42;4.73;;;1.83;;
59770;SDS011;45649;53.014;6.600;2022-12-07T07:14:08;6.20;;;1.83;;
59770;SDS011;45649;53.014;6.600;2022-12-07T07:16:34;5.67;;;1.70;;
59770;SDS011;45649;53.014;6.600;2022-12-07T07:19:00;6.43;;;1.87;;
59770;SDS011;45649;53.014;6.600;2022-12-07T07:21:26;4.30;;;2.40;;
59770;SDS011;45649;53.014;6.600;2022-12-07T07:23:52;4.60;;;1.83;;
59770;SDS011;45649;53.014;6.600;2022-12-07T07:26:18;3.33;;;1.60;;
59770;SDS011;45649;53.014;6.600;2022-12-07T07:28:45;5.90;;;1.40;;
59770;SDS011;45649;53.014;6.600;2022-12-07T07:31:11;5.33;;;1.90;;
59770;SDS011;45649;53.014;6.600;2022-12-07T07:33:37;5.90;;;1.70;;
59770;SDS011;45649;53.014;6.600;2022-12-07T07:36:03;5.03;;;1.60;;
59770;SDS011;45649;53.014;6.600;2022-12-07T07:38:29;5.50;;;1.70;;
59770;SDS011;45649;53.014;6.600;2022-12-07T07:40:55;3.60;;;1.43;;
59770;SDS011;45649;53.014;6.600;2022-12-07T07:43:21;4.77;;;1.70;;
59770;SDS011;45649;53.014;6.600;2022-12-07T07:45:47;4.97;;;1.60;;
59770;SDS011;45649;53.014;6.600;2022-12-07T07:48:14;6.07;;;1.73;;
59770;SDS011;45649;53.014;6.600;2022-12-07T07:50:40;6.37;;;2.20;;
59770;SDS011;45649;53.014;6.600;2022-12-07T07:53:06;5.53;;;1.60;;
59770;SDS011;45649;53.014;6.600;2022-12-07T07:55:33;4.47;;;1.70;;
59770;SDS011;45649;53.014;6.600;2022-12-07T07:57:59;6.97;;;1.90;;
59770;SDS011;45649;53.014;6.600;2022-12-07T08:00:25;5.97;;;1.50;;
59770;SDS011;45649;53.014;6.600;2022-12-07T08:02:52;4.17;;;1.47;;
59770;SDS011;45649;53.014;6.600;2022-12-07T08:05:18;5.73;;;1.80;;
59770;SDS011;45649;53.014;6.600;2022-12-07T08:07:44;4.63;;;1.70;;
59770;SDS011;45649;53.014;6.600;2022-12-07T08:10:11;3.67;;;1.80;;
59770;SDS011;45649;53.014;6.600;2022-12-07T08:12:40;3.27;;;2.17;;
59770;SDS011;45649;53.014;6.600;2022-12-07T08:15:26;9.40;;;4.20;;
59770;SDS011;45649;53.014;6.600;2022-12-07T08:17:52;9.87;;;4.83;;
59770;SDS011;45649;53.014;6.600;2022-12-07T08:20:19;9.60;;;3.93;;
59770;SDS011;45649;53.014;6.600;2022-12-07T08:22:45;11.47;;;5.40;;
59770;SDS011;45649;53.014;6.600;2022-12-07T08:25:11;10.10;;;4.93;;
59770;SDS011;45649;53.014;6.600;2022-12-07T08:27:37;4.77;;;2.30;;
59770;SDS011;45649;53.014;6.600;2022-12-07T08:30:03;5.17;;;2.23;;
59770;SDS011;45649;53.014;6.600;2022-12-07T08:32:30;7.70;;;2.37;;
59770;SDS011;45649;53.014;6.600;2022-12-07T08:34:56;5.73;;;2.20;;
59770;SDS011;45649;53.014;6.600;2022-12-07T08:37:23;8.17;;;2.10;;
59770;SDS011;45649;53.014;6.600;2022-12-07T08:39:49;6.57;;;1.87;;
59770;SDS011;45649;53.014;6.600;2022-12-07T08:42:15;6.97;;;1.80;;
59770;SDS011;45649;53.014;6.600;2022-12-07T08:44:41;7.00;;;1.90;;
59770;SDS011;45649;53.014;6.600;2022-12-07T08:47:08;8.90;;;2.10;;
59770;SDS011;45649;53.014;6.600;2022-12-07T08:49:37;7.47;;;2.53;;
59770;SDS011;45649;53.014;6.600;2022-12-07T08:52:05;7.93;;;2.63;;
59770;SDS011;45649;53.014;6.600;2022-12-07T08:54:31;6.77;;;2.37;;
59770;SDS011;45649;53.014;6.600;2022-12-07T08:56:59;8.00;;;2.57;;
59770;SDS011;45649;53.014;6.600;2022-12-07T08:59:25;7.37;;;2.20;;
59770;SDS011;45649;53.014;6.600;2022-12-07T09:01:52;7.20;;;2.00;;
59770;SDS011;45649;53.014;6.600;2022-12-07T09:04:18;5.57;;;2.20;;
59770;SDS011;45649;53.014;6.600;2022-12-07T09:06:45;9.53;;;2.90;;
59770;SDS011;45649;53.014;6.600;2022-12-07T09:09:11;5.77;;;2.17;;
59770;SDS011;45649;53.014;6.600;2022-12-07T09:11:38;7.17;;;2.20;;
59770;SDS011;45649;53.014;6.600;2022-12-07T09:14:04;6.30;;;1.87;;
59770;SDS011;45649;53.014;6.600;2022-12-07T09:16:31;9.47;;;2.27;;
59770;SDS011;45649;53.014;6.600;2022-12-07T09:18:57;6.60;;;2.27;;
59770;SDS011;45649;53.014;6.600;2022-12-07T09:21:23;5.97;;;2.47;;
59770;SDS011;45649;53.014;6.600;2022-12-07T09:23:50;4.93;;;2.10;;
59770;SDS011;45649;53.014;6.600;2022-12-07T09:26:16;5.80;;;2.33;;
59770;SDS011;45649;53.014;6.600;2022-12-07T09:28:42;5.47;;;2.80;;
59770;SDS011;45649;53.014;6.600;2022-12-07T09:31:08;9.90;;;2.67;;
59770;SDS011;45649;53.014;6.600;2022-12-07T09:33:35;6.37;;;2.20;;
59770;SDS011;45649;53.014;6.600;2022-12-07T09:36:02;5.70;;;2.43;;
59770;SDS011;45649;53.014;6.600;2022-12-07T09:38:29;5.53;;;2.30;;
59770;SDS011;45649;53.014;6.600;2022-12-07T09:40:56;10.00;;;2.67;;
59770;SDS011;45649;53.014;6.600;2022-12-07T09:43:23;8.17;;;2.77;;
59770;SDS011;45649;53.014;6.600;2022-12-07T09:45:51;12.57;;;3.73;;
59770;SDS011;45649;53.014;6.600;2022-12-07T09:48:35;11.50;;;2.80;;
59770;SDS011;45649;53.014;6.600;2022-12-07T09:51:02;6.70;;;2.03;;
59770;SDS011;45649;53.014;6.600;2022-12-07T09:53:36;8.30;;;2.43;;
59770;SDS011;45649;53.014;6.600;2022-12-07T09:56:02;4.57;;;1.90;;
59770;SDS011;45649;53.014;6.600;2022-12-07T09:58:30;5.93;;;2.27;;
59770;SDS011;45649;53.014;6.600;2022-12-07T10:00:58;5.83;;;2.07;;
59770;SDS011;45649;53.014;6.600;2022-12-07T10:03:27;5.30;;;2.10;;
59770;SDS011;45649;53.014;6.600;2022-12-07T10:05:54;7.93;;;2.20;;
59770;SDS011;45649;53.014;6.600;2022-12-07T10:08:22;7.50;;;2.10;;
59770;SDS011;45649;53.014;6.600;2022-12-07T10:10:50;8.10;;;2.03;;
59770;SDS011;45649;53.014;6.600;2022-12-07T10:13:20;4.10;;;1.60;;
59770;SDS011;45649;53.014;6.600;2022-12-07T10:15:54;3.63;;;1.70;;
59770;SDS011;45649;53.014;6.600;2022-12-07T10:18:32;8.97;;;2.43;;
59770;SDS011;45649;53.014;6.600;2022-12-07T10:23:32;5.80;;;1.43;;
59770;SDS011;45649;53.014;6.600;2022-12-07T10:25:59;7.03;;;1.80;;
59770;SDS011;45649;53.014;6.600;2022-12-07T10:28:27;4.57;;;2.00;;
59770;SDS011;45649;53.014;6.600;2022-12-07T10:31:00;4.90;;;1.67;;
59770;SDS011;45649;53.014;6.600;2022-12-07T10:33:32;6.07;;;1.83;;
59770;SDS011;45649;53.014;6.600;2022-12-07T10:35:58;4.50;;;1.70;;
59770;SDS011;45649;53.014;6.600;2022-12-07T10:38:26;11.13;;;2.57;;
59770;SDS011;45649;53.014;6.600;2022-12-07T10:41:05;8.10;;;2.00;;
59770;SDS011;45649;53.014;6.600;2022-12-07T10:43:32;8.60;;;2.73;;
59770;SDS011;45649;53.014;6.600;2022-12-07T10:51:31;8.73;;;2.57;;
59770;SDS011;45649;53.014;6.600;2022-12-07T10:54:09;8.30;;;2.70;;
59770;SDS011;45649;53.014;6.600;2022-12-07T10:56:46;7.67;;;2.70;;
59770;SDS011;45649;53.014;6.600;2022-12-07T11:04:26;9.60;;;2.60;;
59770;SDS011;45649;53.014;6.600;2022-12-07T11:11:55;7.23;;;2.00;;
59770;SDS011;45649;53.014;6.600;2022-12-07T11:14:29;7.87;;;2.20;;
59770;SDS011;45649;53.014;6.600;2022-12-07T11:16:59;5.93;;;2.23;;
59770;SDS011;45649;53.014;6.600;2022-12-07T11:27:41;4.90;;;1.83;;
59770;SDS011;45649;53.014;6.600;2022-12-07T11:30:19;5.87;;;1.53;;
59770;SDS011;45649;53.014;6.600;2022-12-07T11:35:31;5.87;;;1.60;;
59770;SDS011;45649;53.014;6.600;2022-12-07T11:37:59;7.10;;;1.70;;
59770;SDS011;45649;53.014;6.600;2022-12-07T11:40:31;3.30;;;1.40;;
59770;SDS011;45649;53.014;6.600;2022-12-07T11:43:46;5.73;;;1.23;;
59770;SDS011;45649;53.014;6.600;2022-12-07T11:48:32;3.17;;;1.20;;
59770;SDS011;45649;53.014;6.600;2022-12-07T11:51:00;1.67;;;1.20;;
59770;SDS011;45649;53.014;6.600;2022-12-07T11:53:39;1.57;;;1.10;;
59770;SDS011;45649;53.014;6.600;2022-12-07T11:56:17;3.20;;;1.23;;
59770;SDS011;45649;53.014;6.600;2022-12-07T12:03:38;3.53;;;1.27;;
59770;SDS011;45649;53.014;6.600;2022-12-07T12:06:06;5.63;;;1.93;;
59770;SDS011;45649;53.014;6.600;2022-12-07T12:08:39;7.07;;;2.13;;
59770;SDS011;45649;53.014;6.600;2022-12-07T12:21:04;3.53;;;1.80;;
59770;SDS011;45649;53.014;6.600;2022-12-07T12:26:01;6.80;;;2.20;;
59770;SDS011;45649;53.014;6.600;2022-12-07T12:31:06;7.13;;;1.93;;
59770;SDS011;45649;53.014;6.600;2022-12-07T12:33:33;5.80;;;1.83;;
59770;SDS011;45649;53.014;6.600;2022-12-07T12:36:20;6.27;;;2.20;;
59770;SDS011;45649;53.014;6.600;2022-12-07T12:38:51;3.03;;;2.00;;
59770;SDS011;45649;53.014;6.600;2022-12-07T12:46:50;5.37;;;2.13;;
59770;SDS011;45649;53.014;6.600;2022-12-07T12:51:43;6.47;;;2.07;;
59770;SDS011;45649;53.014;6.600;2022-12-07T12:59:26;4.77;;;1.80;;
59770;SDS011;45649;53.014;6.600;2022-12-07T13:02:16;4.67;;;1.80;;
59770;SDS011;45649;53.014;6.600;2022-12-07T13:04:48;4.20;;;1.53;;
59770;SDS011;45649;53.014;6.600;2022-12-07T13:07:47;2.03;;;1.17;;
59770;SDS011;45649;53.014;6.600;2022-12-07T13:10:01;1.30;;;1.03;;
59770;SDS011;45649;53.014;6.600;2022-12-07T13:12:27;1.00;;;0.90;;
59770;SDS011;45649;53.014;6.600;2022-12-07T13:14:55;1.57;;;1.10;;
59770;SDS011;45649;53.014;6.600;2022-12-07T13:17:55;4.10;;;1.00;;
59770;SDS011;45649;53.014;6.600;2022-12-07T13:20:07;1.07;;;0.90;;
59770;SDS011;45649;53.014;6.600;2022-12-07T13:22:35;1.30;;;1.00;;
59770;SDS011;45649;53.014;6.600;2022-12-07T13:27:41;2.33;;;0.97;;
59770;SDS011;45649;53.014;6.600;2022-12-07T13:30:13;2.00;;;1.27;;
59770;SDS011;45649;53.014;6.600;2022-12-07T13:32:40;2.00;;;1.10;;
59770;SDS011;45649;53.014;6.600;2022-12-07T13:37:51;2.27;;;1.23;;
59770;SDS011;45649;53.014;6.600;2022-12-07T13:40:18;1.87;;;1.10;;
59770;SDS011;45649;53.014;6.600;2022-12-07T13:42:45;2.40;;;1.10;;
59770;SDS011;45649;53.014;6.600;2022-12-07T13:45:22;1.87;;;1.77;;
59770;SDS011;45649;53.014;6.600;2022-12-07T13:48:09;3.13;;;2.83;;
59770;SDS011;45649;53.014;6.600;2022-12-07T13:50:37;3.23;;;2.20;;
59770;SDS011;45649;53.014;6.600;2022-12-07T13:53:07;5.07;;;1.80;;
59770;SDS011;45649;53.014;6.600;2022-12-07T13:55:33;2.27;;;1.30;;
59770;SDS011;45649;53.014;6.600;2022-12-07T13:58:00;2.57;;;1.40;;
59770;SDS011;45649;53.014;6.600;2022-12-07T14:00:26;1.63;;;1.37;;
59770;SDS011;45649;53.014;6.600;2022-12-07T14:02:58;3.50;;;1.60;;
59770;SDS011;45649;53.014;6.600;2022-12-07T14:05:28;4.20;;;2.00;;
59770;SDS011;45649;53.014;6.600;2022-12-07T14:07:58;1.70;;;1.60;;
59770;SDS011;45649;53.014;6.600;2022-12-07T14:10:26;2.30;;;1.53;;
59770;SDS011;45649;53.014;6.600;2022-12-07T14:12:52;2.07;;;1.33;;
59770;SDS011;45649;53.014;6.600;2022-12-07T14:15:23;2.73;;;1.60;;
59770;SDS011;45649;53.014;6.600;2022-12-07T14:17:50;2.07;;;1.33;;
59770;SDS011;45649;53.014;6.600;2022-12-07T14:23:02;4.73;;;1.53;;
59770;SDS011;45649;53.014;6.600;2022-12-07T14:25:44;2.60;;;1.50;;
59770;SDS011;45649;53.014;6.600;2022-12-07T14:28:24;2.23;;;1.90;;
59770;SDS011;45649;53.014;6.600;2022-12-07T14:30:51;5.47;;;1.70;;
59770;SDS011;45649;53.014;6.600;2022-12-07T14:33:17;3.90;;;1.93;;
59770;SDS011;45649;53.014;6.600;2022-12-07T14:35:44;4.97;;;2.00;;
59770;SDS011;45649;53.014;6.600;2022-12-07T14:38:15;3.43;;;1.77;;
59770;SDS011;45649;53.014;6.600;2022-12-07T14:40:43;5.13;;;1.60;;
59770;SDS011;45649;53.014;6.600;2022-12-07T14:43:10;4.07;;;1.90;;
59770;SDS011;45649;53.014;6.600;2022-12-07T14:45:38;4.20;;;2.03;;
59770;SDS011;45649;53.014;6.600;2022-12-07T14:48:05;4.77;;;2.20;;
59770;SDS011;45649;53.014;6.600;2022-12-07T14:50:31;5.33;;;2.40;;
59770;SDS011;45649;53.014;6.600;2022-12-07T14:53:01;4.03;;;1.90;;
59770;SDS011;45649;53.014;6.600;2022-12-07T14:55:31;2.83;;;2.00;;
59770;SDS011;45649;53.014;6.600;2022-12-07T14:57:57;2.93;;;1.73;;
59770;SDS011;45649;53.014;6.600;2022-12-07T15:00:24;2.83;;;1.80;;
59770;SDS011;45649;53.014;6.600;2022-12-07T15:02:51;2.97;;;1.90;;
59770;SDS011;45649;53.014;6.600;2022-12-07T15:05:17;5.97;;;1.97;;
59770;SDS011;45649;53.014;6.600;2022-12-07T15:07:44;7.07;;;2.17;;
59770;SDS011;45649;53.014;6.600;2022-12-07T15:10:29;4.93;;;2.00;;
59770;SDS011;45649;53.014;6.600;2022-12-07T15:12:57;8.40;;;5.50;;
59770;SDS011;45649;53.014;6.600;2022-12-07T15:15:43;2.87;;;1.50;;
59770;SDS011;45649;53.014;6.600;2022-12-07T15:18:10;7.27;;;1.70;;
59770;SDS011;45649;53.014;6.600;2022-12-07T15:20:36;5.70;;;1.93;;
59770;SDS011;45649;53.014;6.600;2022-12-07T15:23:02;3.57;;;1.50;;
59770;SDS011;45649;53.014;6.600;2022-12-07T15:25:28;6.20;;;1.57;;
59770;SDS011;45649;53.014;6.600;2022-12-07T15:27:54;4.60;;;1.70;;
59770;SDS011;45649;53.014;6.600;2022-12-07T15:30:20;4.80;;;1.90;;
59770;SDS011;45649;53.014;6.600;2022-12-07T15:32:53;4.67;;;1.50;;
59770;SDS011;45649;53.014;6.600;2022-12-07T15:35:19;3.07;;;1.40;;
59770;SDS011;45649;53.014;6.600;2022-12-07T15:37:46;3.73;;;1.60;;
59770;SDS011;45649;53.014;6.600;2022-12-07T15:40:12;4.78;;;3.10;;
59770;SDS011;45649;53.014;6.600;2022-12-07T15:42:39;8.03;;;4.20;;
59770;SDS011;45649;53.014;6.600;2022-12-07T15:45:06;6.60;;;3.40;;
59770;SDS011;45649;53.014;6.600;2022-12-07T15:47:33;5.53;;;3.80;;
59770;SDS011;45649;53.014;6.600;2022-12-07T15:50:01;6.47;;;3.40;;
59770;SDS011;45649;53.014;6.600;2022-12-07T15:52:27;3.83;;;3.10;;
59770;SDS011;45649;53.014;6.600;2022-12-07T15:54:53;4.30;;;3.20;;
59770;SDS011;45649;53.014;6.600;2022-12-07T15:57:20;4.73;;;3.60;;
59770;SDS011;45649;53.014;6.600;2022-12-07T15:59:46;6.40;;;3.63;;
59770;SDS011;45649;53.014;6.600;2022-12-07T16:02:12;5.07;;;3.33;;
59770;SDS011;45649;53.014;6.600;2022-12-07T16:04:38;4.40;;;3.67;;
59770;SDS011;45649;53.014;6.600;2022-12-07T16:07:05;6.43;;;4.20;;
59770;SDS011;45649;53.014;6.600;2022-12-07T16:09:31;6.97;;;4.30;;
59770;SDS011;45649;53.014;6.600;2022-12-07T16:11:57;9.23;;;5.20;;
59770;SDS011;45649;53.014;6.600;2022-12-07T16:14:24;9.03;;;5.90;;
59770;SDS011;45649;53.014;6.600;2022-12-07T16:16:50;7.73;;;6.10;;
59770;SDS011;45649;53.014;6.600;2022-12-07T16:19:16;6.00;;;4.13;;
59770;SDS011;45649;53.014;6.600;2022-12-07T16:21:42;7.87;;;4.20;;
59770;SDS011;45649;53.014;6.600;2022-12-07T16:24:08;6.00;;;4.03;;
59770;SDS011;45649;53.014;6.600;2022-12-07T16:26:35;7.30;;;4.53;;
59770;SDS011;45649;53.014;6.600;2022-12-07T16:29:01;4.40;;;4.00;;
59770;SDS011;45649;53.014;6.600;2022-12-07T16:31:28;7.13;;;3.73;;
59770;SDS011;45649;53.014;6.600;2022-12-07T16:33:55;5.37;;;3.80;;
59770;SDS011;45649;53.014;6.600;2022-12-07T16:36:21;5.63;;;3.27;;